createdAt,value
2022-10-30T00:00:41.277Z,97.88
2022-10-30T00:03:16.354Z,97.97
2022-10-30T00:05:50.881Z,97.97
2022-10-30T00:08:23.841Z,98.38
2022-10-30T00:10:54.304Z,98.26
2022-10-30T00:13:25.305Z,98.26
2022-10-30T00:15:56.086Z,98.35
2022-10-30T00:18:26.339Z,98.20
2022-10-30T00:20:56.515Z,98.00
2022-10-30T00:23:27.353Z,97.24
2022-10-30T00:25:59.484Z,97.97
2022-10-30T00:28:30.270Z,97.94
2022-10-30T00:31:02.507Z,97.94
2022-10-30T00:33:33.423Z,97.74
2022-10-30T00:36:04.003Z,98.28
2022-10-30T00:38:34.235Z,98.07
2022-10-30T00:41:05.276Z,97.38
2022-10-30T00:43:39.062Z,97.38
2022-10-30T00:46:29.888Z,97.72
2022-10-30T00:49:02.987Z,96.97
2022-10-30T00:51:35.210Z,96.97
2022-10-30T00:54:07.668Z,96.56
2022-10-30T00:56:39.185Z,96.42
2022-10-30T00:59:12.346Z,96.42
2022-10-30T01:01:46.375Z,96.83
2022-10-30T01:04:18.167Z,96.49
2022-10-30T01:06:51.752Z,96.56
2022-10-30T01:09:28.644Z,95.82
2022-10-30T01:11:59.810Z,95.24
2022-10-30T01:14:30.896Z,95.32
2022-10-30T01:17:26.671Z,95.32
2022-10-30T01:20:28.410Z,96.36
2022-10-30T01:23:19.566Z,96.04
2022-10-30T01:26:17.957Z,95.18
2022-10-30T01:32:06.655Z,95.98
2022-10-30T01:37:38.570Z,94.58
2022-10-30T01:40:14.430Z,95.00
2022-10-30T01:42:58.658Z,94.50
2022-10-30T01:46:00.879Z,95.13
2022-10-30T01:48:50.561Z,95.40
2022-10-30T01:54:43.573Z,95.00
2022-10-30T01:57:33.371Z,94.40
2022-10-30T02:00:15.505Z,94.88
2022-10-30T02:02:47.399Z,94.42
2022-10-30T02:05:32.315Z,94.42
2022-10-30T02:08:02.684Z,94.80
2022-10-30T02:10:36.388Z,94.80
2022-10-30T02:13:07.438Z,94.72
2022-10-30T02:15:38.752Z,94.91
2022-10-30T02:18:09.273Z,94.23
2022-10-30T02:20:40.964Z,95.10
2022-10-30T02:23:11.919Z,95.10
2022-10-30T02:25:42.890Z,94.92
2022-10-30T02:28:13.584Z,94.90
2022-10-30T02:30:44.774Z,94.91
2022-10-30T02:33:15.315Z,94.91
2022-10-30T02:35:46.588Z,94.56
2022-10-30T02:38:16.975Z,94.78
2022-10-30T02:40:47.203Z,94.67
2022-10-30T02:43:17.616Z,94.52
2022-10-30T02:45:52.097Z,94.48
2022-10-30T02:48:22.299Z,94.34
2022-10-30T02:50:52.565Z,94.34
2022-10-30T02:53:22.795Z,94.10
2022-10-30T02:55:53.083Z,94.10
2022-10-30T02:58:23.731Z,94.63
2022-10-30T03:00:53.894Z,94.55
2022-10-30T03:03:24.772Z,95.05
2022-10-30T03:05:55.206Z,94.89
2022-10-30T03:08:26.340Z,94.68
2022-10-30T03:11:08.552Z,94.68
2022-10-30T03:13:39.626Z,94.92
2022-10-30T03:16:12.918Z,94.49
2022-10-30T03:18:44.452Z,94.49
2022-10-30T03:21:19.291Z,94.14
2022-10-30T03:23:49.999Z,95.15
2022-10-30T03:26:20.916Z,95.36
2022-10-30T03:28:51.584Z,95.36
2022-10-30T03:31:22.228Z,95.29
2022-10-30T03:33:52.424Z,95.95
2022-10-30T03:36:22.881Z,96.50
2022-10-30T03:38:53.178Z,95.95
2022-10-30T03:41:23.443Z,95.95
2022-10-30T03:43:53.592Z,97.33
2022-10-30T03:46:24.446Z,96.91
2022-10-30T03:48:54.683Z,96.88
2022-10-30T03:51:25.274Z,96.72
2022-10-30T03:53:55.987Z,96.72
2022-10-30T03:56:26.256Z,96.73
2022-10-30T03:58:57.787Z,97.00
2022-10-30T04:01:28.691Z,97.00
2022-10-30T04:03:58.960Z,96.20
2022-10-30T04:06:29.337Z,96.20
2022-10-30T04:09:00.159Z,95.47
2022-10-30T04:11:31.106Z,95.69
2022-10-30T04:14:01.315Z,96.29
2022-10-30T04:16:33.044Z,95.44
2022-10-30T04:19:03.492Z,95.12
2022-10-30T04:21:34.315Z,95.24
2022-10-30T04:24:04.883Z,96.10
2022-10-30T04:26:35.789Z,96.10
2022-10-30T04:29:06.040Z,95.61
2022-10-30T04:31:37.946Z,95.34
2022-10-30T04:34:08.300Z,94.90
2022-10-30T04:36:39.022Z,93.68
2022-10-30T04:39:10.822Z,93.63
2022-10-30T04:41:41.427Z,94.01
2022-10-30T04:44:11.571Z,94.01
2022-10-30T04:46:42.596Z,94.10
2022-10-30T04:49:12.850Z,93.01
2022-10-30T04:51:44.681Z,93.19
2022-10-30T04:54:14.885Z,93.19
2022-10-30T04:56:45.203Z,92.79
2022-10-30T04:59:15.494Z,93.03
2022-10-30T05:01:46.838Z,93.13
2022-10-30T05:04:17.100Z,93.13
2022-10-30T05:06:48.981Z,92.12
2022-10-30T05:09:20.935Z,93.31
2022-10-30T05:11:54.899Z,93.31
2022-10-30T05:14:24.043Z,92.80
2022-10-30T05:16:56.349Z,92.65
2022-10-30T05:19:26.693Z,92.65
2022-10-30T05:21:58.186Z,92.69
2022-10-30T05:24:28.589Z,93.07
2022-10-30T05:27:01.254Z,93.80
2022-10-30T05:29:31.535Z,93.80
2022-10-30T05:32:04.275Z,92.41
2022-10-30T05:34:34.593Z,91.76
2022-10-30T05:37:04.880Z,91.65
2022-10-30T05:39:36.264Z,92.06
2022-10-30T05:42:11.234Z,91.18
2022-10-30T05:44:59.812Z,91.51
2022-10-30T05:47:12.827Z,91.51
2022-10-30T05:49:43.164Z,91.30
2022-10-30T05:52:13.581Z,91.30
2022-10-30T05:54:44.939Z,90.90
2022-10-30T05:57:15.654Z,90.28
2022-10-30T05:59:46.805Z,90.28
2022-10-30T06:02:20.407Z,89.12
2022-10-30T06:04:52.205Z,89.65
2022-10-30T06:07:22.728Z,89.65
2022-10-30T06:09:56.056Z,90.23
2022-10-30T06:12:27.318Z,90.23
2022-10-30T06:14:58.261Z,89.99
2022-10-30T06:17:33.567Z,89.75
2022-10-30T06:20:05.267Z,88.19
2022-10-30T06:22:38.694Z,87.54
2022-10-30T06:25:09.881Z,88.92
2022-10-30T06:27:43.682Z,88.92
2022-10-30T06:30:13.305Z,89.45
2022-10-30T06:32:43.720Z,89.55
2022-10-30T06:35:15.306Z,89.40
2022-10-30T06:37:50.511Z,89.38
2022-10-30T06:40:21.178Z,90.05
2022-10-30T06:42:53.470Z,90.05
2022-10-30T06:45:25.282Z,90.54
2022-10-30T06:47:55.718Z,90.54
2022-10-30T06:50:30.099Z,90.60
2022-10-30T06:53:00.850Z,89.18
2022-10-30T06:55:34.521Z,89.79
2022-10-30T06:58:05.060Z,89.12
2022-10-30T07:00:41.650Z,88.75
2022-10-30T07:03:12.491Z,89.44
2022-10-30T07:05:43.622Z,89.44
2022-10-30T07:08:18.961Z,88.35
2022-10-30T07:10:50.820Z,88.12
2022-10-30T07:13:21.172Z,88.12
2022-10-30T07:15:52.011Z,88.63
2022-10-30T07:18:22.465Z,88.32
2022-10-30T07:20:56.963Z,87.94
2022-10-30T07:23:27.162Z,87.94
2022-10-30T07:26:03.537Z,87.35
2022-10-30T07:28:31.579Z,88.16
2022-10-30T07:31:02.582Z,87.42
2022-10-30T07:33:33.126Z,88.28
2022-10-30T07:36:03.896Z,87.05
2022-10-30T07:38:35.256Z,86.99
2022-10-30T07:41:11.237Z,86.99
2022-10-30T07:43:50.534Z,87.41
2022-10-30T07:46:21.145Z,87.37
2022-10-30T07:48:51.374Z,87.21
2022-10-30T07:51:23.899Z,87.21
2022-10-30T07:53:55.693Z,88.41
2022-10-30T07:56:29.012Z,87.12
2022-10-30T07:58:59.380Z,87.12
2022-10-30T08:01:34.541Z,87.44
2022-10-30T08:04:07.695Z,86.36
2022-10-30T08:06:38.424Z,86.22
2022-10-30T08:09:09.094Z,86.22
2022-10-30T08:11:40.061Z,85.59
2022-10-30T08:14:10.409Z,84.69
2022-10-30T08:16:42.926Z,81.48
2022-10-30T08:19:15.055Z,81.48
2022-10-30T08:21:45.963Z,80.52
2022-10-30T08:24:16.088Z,81.50
2022-10-30T08:26:50.588Z,81.50
2022-10-30T08:29:20.950Z,82.31
2022-10-30T08:31:51.937Z,82.50
2022-10-30T08:34:24.317Z,82.50
2022-10-30T08:36:57.221Z,83.51
2022-10-30T08:39:32.263Z,84.14
2022-10-30T08:42:02.446Z,83.82
2022-10-30T08:44:36.381Z,84.67
2022-10-30T08:47:06.545Z,83.76
2022-10-30T08:49:38.093Z,82.58
2022-10-30T08:52:11.359Z,82.58
2022-10-30T08:54:42.222Z,83.01
2022-10-30T08:57:12.937Z,79.47
2022-10-30T08:59:43.311Z,78.72
2022-10-30T09:02:13.771Z,76.19
2022-10-30T09:04:44.039Z,74.13
2022-10-30T09:07:14.856Z,76.14
2022-10-30T09:09:47.166Z,76.14
2022-10-30T09:12:18.696Z,76.48
2022-10-30T09:14:51.589Z,75.54
2022-10-30T09:17:23.042Z,76.64
2022-10-30T09:19:58.713Z,77.72
2022-10-30T09:22:30.892Z,77.60
2022-10-30T09:25:04.197Z,77.60
2022-10-30T09:27:55.890Z,75.87
2022-10-30T09:30:26.524Z,75.64
2022-10-30T09:32:59.651Z,74.76
2022-10-30T09:35:31.053Z,75.75
2022-10-30T09:38:01.939Z,75.75
2022-10-30T09:40:50.684Z,76.62
2022-10-30T09:43:43.126Z,77.67
2022-10-30T09:46:26.767Z,76.40
2022-10-30T09:49:22.505Z,76.40
2022-10-30T09:51:58.172Z,76.41
2022-10-30T09:54:31.714Z,76.41
2022-10-30T09:57:17.684Z,75.95
2022-10-30T10:00:06.435Z,75.95
2022-10-30T10:02:52.140Z,76.93
2022-10-30T10:09:05.320Z,73.70
2022-10-30T10:11:42.078Z,74.72
2022-10-30T10:14:45.280Z,73.43
2022-10-30T10:17:21.748Z,77.58
2022-10-30T10:20:05.142Z,77.58
2022-10-30T10:22:41.449Z,76.47
2022-10-30T10:25:15.348Z,76.71
2022-10-30T10:27:52.060Z,73.50
2022-10-30T10:30:28.602Z,74.87
2022-10-30T10:33:15.252Z,75.71
2022-10-30T10:36:02.368Z,75.71
2022-10-30T10:39:09.901Z,74.35
2022-10-30T10:41:57.612Z,74.48
2022-10-30T10:44:56.994Z,74.48
2022-10-30T10:50:49.618Z,72.22
2022-10-30T10:53:43.903Z,72.22
2022-10-30T10:56:15.081Z,73.28
2022-10-30T10:58:57.738Z,72.54
2022-10-30T11:01:34.027Z,72.87
2022-10-30T11:04:20.330Z,72.53
2022-10-30T11:06:56.510Z,70.79
2022-10-30T11:09:27.962Z,72.01
2022-10-30T11:11:58.991Z,72.01
2022-10-30T11:14:36.597Z,72.77
2022-10-30T11:17:44.643Z,72.77
2022-10-30T11:20:21.820Z,72.40
2022-10-30T11:22:53.661Z,71.78
2022-10-30T11:25:28.628Z,71.78
2022-10-30T11:28:02.911Z,70.95
2022-10-30T11:30:36.783Z,70.95
2022-10-30T11:36:04.402Z,72.07
2022-10-30T11:38:36.838Z,73.12
2022-10-30T11:41:11.368Z,72.47
2022-10-30T11:43:43.500Z,72.47
2022-10-30T11:46:24.552Z,72.34
2022-10-30T11:48:55.390Z,72.34
2022-10-30T11:52:08.255Z,70.91
2022-10-30T11:57:54.746Z,71.01
2022-10-30T12:01:05.685Z,71.96
2022-10-30T12:03:40.061Z,72.54
2022-10-30T12:06:21.067Z,72.94
2022-10-30T12:09:14.295Z,72.30
2022-10-30T12:11:45.992Z,71.69
2022-10-30T12:14:21.575Z,72.75
2022-10-30T12:16:54.801Z,72.38
2022-10-30T12:19:26.953Z,72.38
2022-10-30T12:21:59.876Z,72.62
2022-10-30T12:24:33.288Z,73.68
2022-10-30T12:27:07.027Z,72.11
2022-10-30T12:30:07.935Z,72.11
2022-10-30T12:32:27.474Z,74.17
2022-10-30T12:35:06.471Z,74.11
2022-10-30T12:37:43.085Z,74.84
2022-10-30T12:40:27.663Z,74.84
2022-10-30T12:43:03.357Z,74.97
2022-10-30T12:45:42.108Z,74.97
2022-10-30T12:48:24.001Z,73.65
2022-10-30T12:51:03.574Z,74.92
2022-10-30T12:53:39.066Z,75.61
2022-10-30T12:56:14.939Z,75.75
2022-10-30T12:58:54.190Z,75.75
2022-10-30T13:02:00.246Z,75.82
2022-10-30T13:04:33.556Z,75.69
2022-10-30T13:07:15.660Z,75.38
2022-10-30T13:09:48.847Z,75.33
2022-10-30T13:12:26.845Z,74.67
2022-10-30T13:15:00.165Z,73.44
2022-10-30T13:17:30.618Z,74.98
2022-10-30T13:20:01.037Z,74.98
2022-10-30T13:22:51.246Z,74.80
2022-10-30T13:25:45.430Z,74.80
2022-10-30T13:28:28.317Z,73.02
2022-10-30T13:31:04.363Z,74.57
2022-10-30T13:33:40.206Z,74.16
2022-10-30T13:36:13.627Z,74.16
2022-10-30T13:38:55.111Z,74.66
2022-10-30T13:41:48.068Z,75.38
2022-10-30T13:44:42.290Z,75.96
2022-10-30T13:47:34.792Z,74.62
2022-10-30T13:50:13.559Z,75.29
2022-10-30T13:52:50.076Z,76.17
2022-10-30T13:55:26.448Z,75.52
2022-10-30T13:58:06.963Z,75.52
2022-10-30T14:00:57.894Z,75.47
2022-10-30T14:03:58.584Z,75.38
2022-10-30T14:06:59.507Z,76.55
2022-10-30T14:09:49.584Z,77.18
2022-10-30T14:12:48.750Z,77.18
2022-10-30T14:15:25.907Z,76.60
2022-10-30T14:18:17.557Z,76.60
2022-10-30T14:20:52.813Z,77.84
2022-10-30T14:23:37.823Z,77.40
2022-10-30T14:26:14.252Z,77.40
2022-10-30T14:28:55.378Z,77.98
2022-10-30T14:31:37.132Z,77.99
2022-10-30T14:34:12.023Z,77.99
2022-10-30T14:36:47.878Z,77.77
2022-10-30T14:39:24.312Z,78.62
2022-10-30T14:45:39.656Z,79.65
2022-10-30T14:48:23.722Z,79.10
2022-10-30T14:51:19.645Z,80.70
2022-10-30T14:54:18.052Z,81.39
2022-10-30T14:56:51.811Z,81.39
2022-10-30T14:59:26.046Z,81.87
2022-10-30T15:02:23.407Z,81.80
2022-10-30T15:05:08.786Z,80.89
2022-10-30T15:07:54.856Z,80.89
2022-10-30T15:10:41.978Z,80.83
2022-10-30T15:13:29.788Z,80.21
2022-10-30T15:16:08.715Z,81.14
2022-10-30T15:18:54.776Z,81.44
2022-10-30T15:21:24.769Z,80.83
2022-10-30T15:24:01.914Z,81.58
2022-10-30T15:26:36.454Z,80.93
2022-10-30T15:29:10.150Z,80.93
2022-10-30T15:31:43.332Z,81.47
2022-10-30T15:34:23.247Z,82.21
2022-10-30T15:37:10.597Z,82.21
2022-10-30T15:39:36.319Z,82.08
2022-10-30T15:42:13.289Z,83.02
2022-10-30T15:44:52.384Z,82.42
2022-10-30T15:47:24.466Z,82.42
2022-10-30T15:49:58.091Z,82.92
2022-10-30T15:52:34.490Z,82.77
2022-10-30T15:55:11.101Z,85.44
2022-10-30T15:58:08.144Z,85.44
2022-10-30T16:00:33.043Z,83.93
2022-10-30T16:03:09.696Z,83.83
2022-10-30T16:05:42.779Z,84.28
2022-10-30T16:08:37.147Z,85.03
2022-10-30T16:11:07.738Z,84.64
2022-10-30T16:13:39.179Z,84.64
2022-10-30T16:16:18.945Z,85.07
2022-10-30T16:18:51.842Z,86.17
2022-10-30T16:21:23.995Z,85.35
2022-10-30T16:24:15.411Z,87.16
2022-10-30T16:26:49.405Z,86.61
2022-10-30T16:29:29.579Z,86.35
2022-10-30T16:34:45.141Z,86.94
2022-10-30T16:37:27.275Z,86.94
2022-10-30T16:40:01.283Z,86.72
2022-10-30T16:42:31.949Z,86.52
2022-10-30T16:45:19.286Z,86.17
2022-10-30T16:48:08.986Z,86.17
2022-10-30T16:50:39.462Z,85.04
2022-10-30T16:53:24.730Z,86.65
2022-10-30T16:55:58.364Z,87.02
2022-10-30T16:58:39.354Z,87.02
2022-10-30T17:04:08.976Z,85.70
2022-10-30T17:06:44.175Z,86.18
2022-10-30T17:09:30.993Z,86.42
2022-10-30T17:12:16.520Z,87.30
2022-10-30T17:14:58.275Z,86.07
2022-10-30T17:17:33.222Z,87.05
2022-10-30T17:20:12.728Z,86.54
2022-10-30T17:22:44.752Z,86.83
2022-10-30T17:25:19.235Z,86.83
2022-10-30T17:27:52.249Z,85.81
2022-10-30T17:30:40.931Z,86.79
2022-10-30T17:33:25.491Z,86.95
2022-10-30T17:36:00.656Z,87.02
2022-10-30T17:38:31.816Z,87.01
2022-10-30T17:41:03.598Z,87.26
2022-10-30T17:43:37.487Z,87.26
2022-10-30T17:46:10.105Z,87.48
2022-10-30T17:48:40.923Z,87.48
2022-10-30T17:51:17.482Z,88.55
2022-10-30T17:53:49.620Z,88.55
2022-10-30T17:56:25.885Z,88.69
2022-10-30T17:58:58.857Z,88.69
2022-10-30T18:01:30.153Z,87.06
2022-10-30T18:04:03.147Z,86.89
2022-10-30T18:06:37.812Z,87.19
2022-10-30T18:09:08.246Z,87.19
2022-10-30T18:11:39.497Z,87.23
2022-10-30T18:17:27.778Z,88.13
2022-10-30T18:20:02.424Z,87.69
2022-10-30T18:22:35.276Z,87.69
2022-10-30T18:25:20.374Z,87.78
2022-10-30T18:27:54.366Z,87.65
2022-10-30T18:30:26.888Z,86.47
2022-10-30T18:32:58.809Z,86.79
2022-10-30T18:38:19.746Z,86.52
2022-10-30T18:40:53.179Z,85.93
2022-10-30T18:43:24.409Z,85.93
2022-10-30T18:45:56.989Z,85.79
2022-10-30T18:48:27.586Z,85.62
2022-10-30T18:50:57.979Z,85.20
2022-10-30T18:53:39.056Z,86.63
2022-10-30T18:56:16.712Z,86.63
2022-10-30T18:58:54.929Z,86.37
2022-10-30T19:01:27.917Z,85.76
2022-10-30T19:03:59.500Z,85.97
2022-10-30T19:06:30.613Z,86.55
2022-10-30T19:09:01.971Z,88.19
2022-10-30T19:11:33.530Z,88.19
2022-10-30T19:14:13.749Z,86.82
2022-10-30T19:16:44.361Z,86.45
2022-10-30T19:19:15.458Z,86.37
2022-10-30T19:21:47.228Z,86.40
2022-10-30T19:24:23.060Z,86.40
2022-10-30T19:26:54.864Z,85.12
2022-10-30T19:29:29.650Z,85.12
2022-10-30T19:32:03.223Z,86.13
2022-10-30T19:34:37.405Z,86.03
2022-10-30T19:37:10.128Z,85.73
2022-10-30T19:39:41.225Z,86.31
2022-10-30T19:42:11.672Z,86.00
2022-10-30T19:44:42.703Z,86.00
2022-10-30T19:47:13.098Z,86.92
2022-10-30T19:49:44.566Z,87.39
2022-10-30T19:52:15.004Z,86.58
2022-10-30T19:54:45.633Z,87.35
2022-10-30T19:57:19.586Z,86.69
2022-10-30T19:59:59.389Z,86.07
2022-10-30T20:02:29.948Z,86.38
2022-10-30T20:05:03.267Z,86.38
2022-10-30T20:07:36.895Z,87.59
2022-10-30T20:10:16.304Z,87.51
2022-10-30T20:12:47.619Z,87.51
2022-10-30T20:15:21.626Z,87.64
2022-10-30T20:17:52.484Z,86.54
2022-10-30T20:20:27.016Z,86.11
2022-10-30T20:23:01.334Z,86.82
2022-10-30T20:25:32.645Z,86.72
2022-10-30T20:28:07.127Z,86.87
2022-10-30T20:30:38.984Z,86.53
2022-10-30T20:33:12.328Z,86.10
2022-10-30T20:35:43.482Z,86.57
2022-10-30T20:38:28.342Z,86.57
2022-10-30T20:41:04.475Z,85.86
2022-10-30T20:43:37.926Z,86.28
2022-10-30T20:46:10.714Z,86.17
2022-10-30T20:48:41.301Z,86.23
2022-10-30T20:51:13.070Z,86.15
2022-10-30T20:53:44.016Z,85.37
2022-10-30T20:56:14.614Z,86.47
2022-10-30T20:58:45.407Z,86.10
2022-10-30T21:01:16.186Z,86.18
2022-10-30T21:03:47.622Z,84.41
2022-10-30T21:06:18.210Z,84.47
2022-10-30T21:08:50.225Z,84.48
2022-10-30T21:11:22.708Z,84.48
2022-10-30T21:13:53.163Z,83.51
2022-10-30T21:16:24.178Z,83.67
2022-10-30T21:18:55.006Z,84.60
2022-10-30T21:21:26.866Z,83.57
2022-10-30T21:23:57.509Z,83.39
2022-10-30T21:26:28.825Z,83.75
2022-10-30T21:29:02.824Z,83.72
2022-10-30T21:31:33.198Z,82.14
2022-10-30T21:34:03.550Z,82.88
2022-10-30T21:36:34.589Z,83.18
2022-10-30T21:39:05.680Z,83.08
2022-10-30T21:41:36.540Z,82.33
2022-10-30T21:44:08.595Z,82.59
2022-10-30T21:46:38.951Z,82.59
2022-10-30T21:49:13.519Z,83.29
2022-10-30T21:51:46.301Z,81.99
2022-10-30T21:54:17.901Z,82.67
2022-10-30T21:56:48.916Z,82.39
2022-10-30T21:59:19.356Z,83.21
2022-10-30T22:01:51.482Z,82.99
2022-10-30T22:04:21.918Z,84.17
2022-10-30T22:06:54.462Z,83.84
2022-10-30T22:09:27.488Z,84.42
2022-10-30T22:12:00.580Z,83.61
2022-10-30T22:14:32.036Z,83.65
2022-10-30T22:17:10.095Z,83.73
2022-10-30T22:19:40.417Z,83.57
2022-10-30T22:22:13.889Z,83.17
2022-10-30T22:24:44.798Z,83.43
2022-10-30T22:27:15.032Z,83.37
2022-10-30T22:29:45.474Z,83.67
2022-10-30T22:32:15.816Z,84.31
2022-10-30T22:34:46.141Z,83.85
2022-10-30T22:37:16.747Z,82.61
2022-10-30T22:39:49.280Z,83.00
2022-10-30T22:42:19.412Z,82.86
2022-10-30T22:44:49.672Z,83.54
2022-10-30T22:47:19.831Z,84.96
2022-10-30T22:49:51.506Z,84.50
2022-10-30T22:52:21.816Z,84.50
2022-10-30T22:54:52.276Z,84.56
2022-10-30T22:57:22.588Z,84.48
2022-10-30T22:59:52.982Z,84.01
2022-10-30T23:02:23.279Z,84.01
2022-10-30T23:04:55.293Z,84.51
2022-10-30T23:07:27.263Z,84.20
2022-10-30T23:09:58.111Z,83.57
2022-10-30T23:12:28.426Z,83.57
2022-10-30T23:14:59.274Z,84.32
2022-10-30T23:17:29.933Z,85.07
2022-10-30T23:20:00.325Z,84.37
2022-10-30T23:22:31.200Z,84.37
2022-10-30T23:25:01.586Z,85.45
2022-10-30T23:27:32.181Z,85.37
2022-10-30T23:30:02.553Z,85.86
2022-10-30T23:32:33.084Z,85.79
2022-10-30T23:35:03.325Z,85.64
2022-10-30T23:37:33.737Z,85.68
2022-10-30T23:40:03.993Z,85.68
2022-10-30T23:42:34.605Z,85.89
2022-10-30T23:45:05.365Z,85.10
2022-10-30T23:47:35.685Z,86.30
2022-10-30T23:50:06.137Z,86.30
2022-10-30T23:52:36.300Z,86.26
2022-10-30T23:55:08.428Z,86.26
2022-10-30T23:57:38.717Z,86.39
